createdAt,value
2018-05-13T00:00:27.795Z,1000.88
2018-05-13T00:01:27.768Z,1000.91
2018-05-13T00:02:27.743Z,1000.89
2018-05-13T00:03:27.729Z,1000.92
2018-05-13T00:04:27.712Z,1000.90
2018-05-13T00:05:27.697Z,1000.92
2018-05-13T00:06:27.690Z,1000.90
2018-05-13T00:07:27.662Z,1000.93
2018-05-13T00:08:27.645Z,1000.97
2018-05-13T00:09:27.627Z,1000.96
2018-05-13T00:10:27.616Z,1000.94
2018-05-13T00:11:27.624Z,1000.92
2018-05-13T00:12:27.576Z,1000.95
2018-05-13T00:13:27.559Z,1000.95
2018-05-13T00:14:27.542Z,1000.96
2018-05-13T00:15:27.526Z,1001.00
2018-05-13T00:16:27.508Z,1000.97
2018-05-13T00:17:27.501Z,1000.99
2018-05-13T00:18:27.476Z,1001.02
2018-05-13T00:19:27.457Z,1000.98
2018-05-13T00:20:27.440Z,1001.00
2018-05-13T00:21:27.423Z,1000.97
2018-05-13T00:22:27.425Z,1001.01
2018-05-13T00:23:27.389Z,1000.98
2018-05-13T00:24:27.374Z,1001.00
2018-05-13T00:25:27.355Z,1001.01
2018-05-13T00:26:27.338Z,1001.01
2018-05-13T00:27:27.320Z,1001.03
2018-05-13T00:28:27.317Z,1001.02
2018-05-13T00:29:27.287Z,1001.03
2018-05-13T00:30:27.269Z,1001.01
2018-05-13T00:31:27.253Z,1001.00
2018-05-13T00:32:27.238Z,1001.07
2018-05-13T00:33:27.474Z,1001.03
2018-05-13T00:34:27.201Z,1001.03
2018-05-13T00:35:27.184Z,1001.01
2018-05-13T00:36:27.168Z,1000.99
2018-05-13T00:37:27.150Z,1001.00
2018-05-13T00:38:27.133Z,1000.97
2018-05-13T00:39:27.127Z,1000.99
2018-05-13T00:40:27.101Z,1001.01
2018-05-13T00:41:27.081Z,1000.97
2018-05-13T00:42:27.129Z,1000.99
2018-05-13T00:43:27.047Z,1001.00
2018-05-13T00:44:27.046Z,1001.05
2018-05-13T00:45:27.014Z,1001.15
2018-05-13T00:46:26.999Z,1001.22
2018-05-13T00:47:26.979Z,1001.27
2018-05-13T00:48:26.964Z,1001.35
2018-05-13T00:49:26.950Z,1001.38
2018-05-13T00:50:26.938Z,1001.38
2018-05-13T00:51:26.911Z,1001.33
2018-05-13T00:52:26.896Z,1001.24
2018-05-13T00:53:26.877Z,1001.25
2018-05-13T00:54:26.862Z,1001.20
2018-05-13T00:55:27.123Z,1001.15
2018-05-13T00:56:26.827Z,1001.24
2018-05-13T00:57:26.815Z,1001.39
2018-05-13T00:58:26.793Z,1001.53
2018-05-13T00:59:26.778Z,1001.60
2018-05-13T01:00:26.759Z,1001.59
2018-05-13T01:01:26.750Z,1001.49
2018-05-13T01:02:26.724Z,1001.39
2018-05-13T01:03:26.706Z,1001.36
2018-05-13T01:04:26.692Z,1001.38
2018-05-13T01:05:26.676Z,1001.46
2018-05-13T01:06:26.672Z,1001.38
2018-05-13T01:07:26.638Z,1001.37
2018-05-13T01:08:26.622Z,1001.34
2018-05-13T01:09:26.606Z,1001.32
2018-05-13T01:10:26.588Z,1001.32
2018-05-13T01:11:26.571Z,1001.33
2018-05-13T01:12:26.563Z,1001.32
2018-05-13T01:13:26.537Z,1001.34
2018-05-13T01:14:26.520Z,1001.35
2018-05-13T01:15:26.502Z,1001.33
2018-05-13T01:16:26.491Z,1001.32
2018-05-13T01:17:26.482Z,1001.34
2018-05-13T01:18:26.453Z,1001.30
2018-05-13T01:19:26.437Z,1001.28
2018-05-13T01:20:26.418Z,1001.25
2018-05-13T01:21:26.402Z,1001.27
2018-05-13T01:22:26.385Z,1001.27
2018-05-13T01:23:26.378Z,1001.32
2018-05-13T01:24:26.352Z,1001.30
2018-05-13T01:25:26.338Z,1001.29
2018-05-13T01:26:26.352Z,1001.32
2018-05-13T01:27:26.304Z,1001.31
2018-05-13T01:28:26.315Z,1001.30
2018-05-13T01:29:26.266Z,1001.28
2018-05-13T01:30:26.251Z,1001.27
2018-05-13T01:31:26.232Z,1001.25
2018-05-13T01:32:26.216Z,1001.27
2018-05-13T01:33:26.198Z,1001.25
2018-05-13T01:34:26.190Z,1001.22
2018-05-13T01:35:26.165Z,1001.19
2018-05-13T01:36:26.148Z,1001.17
2018-05-13T01:37:26.137Z,1001.21
2018-05-13T01:38:26.116Z,1001.18
2018-05-13T01:39:26.130Z,1001.20
2018-05-13T01:40:26.083Z,1001.13
2018-05-13T01:41:26.065Z,1001.10
2018-05-13T01:42:26.048Z,1001.10
2018-05-13T01:43:26.030Z,1001.11
2018-05-13T01:44:26.012Z,1001.12
2018-05-13T01:45:26.006Z,1001.09
2018-05-13T01:46:25.980Z,1001.12
2018-05-13T01:47:25.962Z,1001.15
2018-05-13T01:48:25.947Z,1001.14
2018-05-13T01:49:25.932Z,1001.15
2018-05-13T01:50:25.926Z,1001.14
2018-05-13T01:51:25.895Z,1001.10
2018-05-13T01:52:25.877Z,1001.14
2018-05-13T01:53:25.861Z,1001.08
2018-05-13T01:54:25.845Z,1001.07
2018-05-13T01:55:25.826Z,1001.02
2018-05-13T01:56:25.824Z,1001.00
2018-05-13T01:57:25.793Z,1001.00
2018-05-13T01:58:25.777Z,1001.01
2018-05-13T01:59:25.759Z,1001.03
2018-05-13T02:00:25.746Z,1000.99
2018-05-13T02:01:25.726Z,1001.05
2018-05-13T02:02:25.719Z,1001.07
2018-05-13T02:03:25.756Z,1001.04
2018-05-13T02:04:25.674Z,1001.05
2018-05-13T02:05:25.661Z,1001.03
2018-05-13T02:06:25.647Z,1001.05
2018-05-13T02:07:25.639Z,1001.03
2018-05-13T02:08:25.606Z,1001.08
2018-05-13T02:09:25.594Z,1001.14
2018-05-13T02:10:25.574Z,1001.17
2018-05-13T02:11:25.554Z,1001.15
2018-05-13T02:12:25.541Z,1001.15
2018-05-13T02:13:25.561Z,1001.17
2018-05-13T02:14:25.511Z,1001.15
2018-05-13T02:15:25.487Z,1001.15
2018-05-13T02:16:25.469Z,1001.18
2018-05-13T02:17:25.452Z,1001.20
2018-05-13T02:18:25.438Z,1001.27
2018-05-13T02:19:25.427Z,1001.22
2018-05-13T02:20:25.401Z,1001.26
2018-05-13T02:21:25.385Z,1001.25
2018-05-13T02:22:25.367Z,1001.28
2018-05-13T02:23:25.350Z,1001.29
2018-05-13T02:24:25.341Z,1001.35
2018-05-13T02:25:25.316Z,1001.35
2018-05-13T02:26:25.299Z,1001.33
2018-05-13T02:27:25.281Z,1001.34
2018-05-13T02:28:25.272Z,1001.29
2018-05-13T02:29:25.905Z,1001.28
2018-05-13T02:30:25.230Z,1001.23
2018-05-13T02:31:25.213Z,1001.23
2018-05-13T02:32:25.195Z,1001.27
2018-05-13T02:33:25.180Z,1001.23
2018-05-13T02:34:25.161Z,1001.26
2018-05-13T02:35:25.160Z,1001.27
2018-05-13T02:36:25.125Z,1001.24
2018-05-13T02:37:25.109Z,1001.24
2018-05-13T02:38:25.093Z,1001.21
2018-05-13T02:39:25.080Z,1001.23
2018-05-13T02:40:25.059Z,1001.21
2018-05-13T02:41:25.051Z,1001.24
2018-05-13T02:42:25.025Z,1001.19
2018-05-13T02:43:25.009Z,1001.23
2018-05-13T02:44:24.993Z,1001.24
2018-05-13T02:45:24.974Z,1001.23
2018-05-13T02:46:24.967Z,1001.23
2018-05-13T02:47:24.938Z,1001.19
2018-05-13T02:48:24.924Z,1001.18
2018-05-13T02:49:24.904Z,1001.18
2018-05-13T02:50:24.888Z,1001.13
2018-05-13T02:51:24.881Z,1001.13
2018-05-13T02:52:24.854Z,1001.13
2018-05-13T02:53:24.835Z,1001.12
2018-05-13T02:54:24.829Z,1001.14
2018-05-13T02:55:24.800Z,1001.12
2018-05-13T02:56:24.785Z,1001.07
2018-05-13T02:57:24.781Z,1001.08
2018-05-13T02:58:24.753Z,1001.03
2018-05-13T02:59:24.732Z,1000.99
2018-05-13T03:00:24.715Z,1001.02
2018-05-13T03:01:24.699Z,1001.03
2018-05-13T03:02:24.688Z,1001.05
2018-05-13T03:03:24.676Z,1001.07
2018-05-13T03:04:24.649Z,1001.11
2018-05-13T03:05:24.629Z,1001.11
2018-05-13T03:06:24.611Z,1001.08
2018-05-13T03:07:24.597Z,1001.10
2018-05-13T03:08:24.589Z,1001.14
2018-05-13T03:09:24.562Z,1001.17
2018-05-13T03:10:24.545Z,1001.13
2018-05-13T03:11:24.527Z,1001.19
2018-05-13T03:12:24.514Z,1001.17
2018-05-13T03:13:24.509Z,1001.22
2018-05-13T03:14:24.479Z,1001.22
2018-05-13T03:15:24.458Z,1001.26
2018-05-13T03:16:24.441Z,1001.30
2018-05-13T03:17:24.436Z,1001.32
2018-05-13T03:18:24.407Z,1001.31
2018-05-13T03:19:24.424Z,1001.34
2018-05-13T03:20:24.373Z,1001.37
2018-05-13T03:21:24.359Z,1001.35
2018-05-13T03:22:24.339Z,1001.35
2018-05-13T03:23:24.321Z,1001.38
2018-05-13T03:24:24.305Z,1001.36
2018-05-13T03:25:24.295Z,1001.39
2018-05-13T03:26:24.270Z,1001.37
2018-05-13T03:27:24.252Z,1001.34
2018-05-13T03:28:24.236Z,1001.37
2018-05-13T03:29:24.219Z,1001.36
2018-05-13T03:30:24.219Z,1001.40
2018-05-13T03:31:24.184Z,1001.42
2018-05-13T03:32:24.168Z,1001.43
2018-05-13T03:33:24.150Z,1001.46
2018-05-13T03:34:24.139Z,1001.44
2018-05-13T03:35:24.116Z,1001.48
2018-05-13T03:36:24.115Z,1001.49
2018-05-13T03:37:24.082Z,1001.54
2018-05-13T03:38:24.065Z,1001.56
2018-05-13T03:39:24.047Z,1001.57
2018-05-13T03:40:24.027Z,1001.51
2018-05-13T03:41:24.013Z,1001.54
2018-05-13T03:42:24.007Z,1001.49
2018-05-13T03:43:23.981Z,1001.50
2018-05-13T03:44:23.964Z,1001.50
2018-05-13T03:45:23.944Z,1001.53
2018-05-13T03:46:23.925Z,1001.49
2018-05-13T03:47:23.942Z,1001.46
2018-05-13T03:48:23.890Z,1001.48
2018-05-13T03:49:23.880Z,1001.48
2018-05-13T03:50:23.860Z,1001.44
2018-05-13T03:51:23.841Z,1001.48
2018-05-13T03:52:23.822Z,1001.48
2018-05-13T03:53:23.822Z,1001.47
2018-05-13T03:54:23.788Z,1001.49
2018-05-13T03:55:23.770Z,1001.46
2018-05-13T03:56:23.753Z,1001.45
2018-05-13T03:57:23.745Z,1001.45
2018-05-13T03:58:23.718Z,1001.44
2018-05-13T03:59:23.715Z,1001.44
2018-05-13T04:00:23.684Z,1001.43
2018-05-13T04:01:23.667Z,1001.44
2018-05-13T04:02:23.649Z,1001.39
2018-05-13T04:03:23.630Z,1001.41
2018-05-13T04:04:23.633Z,1001.41
2018-05-13T04:05:23.597Z,1001.41
2018-05-13T04:06:23.581Z,1001.37
2018-05-13T04:07:23.619Z,1001.38
2018-05-13T04:08:23.546Z,1001.33
2018-05-13T04:09:23.528Z,1001.36
2018-05-13T04:10:23.523Z,1001.32
2018-05-13T04:11:23.492Z,1001.40
2018-05-13T04:12:23.475Z,1001.32
2018-05-13T04:13:23.459Z,1001.35
2018-05-13T04:14:23.446Z,1001.35
2018-05-13T04:15:23.423Z,1001.37
2018-05-13T04:16:23.419Z,1001.37
2018-05-13T04:17:23.392Z,1001.37
2018-05-13T04:18:23.372Z,1001.33
2018-05-13T04:19:23.354Z,1001.35
2018-05-13T04:20:23.337Z,1001.38
2018-05-13T04:21:23.320Z,1001.38
2018-05-13T04:22:23.312Z,1001.38
2018-05-13T04:23:23.284Z,1001.39
2018-05-13T04:24:23.267Z,1001.34
2018-05-13T04:25:23.251Z,1001.39
2018-05-13T04:26:23.234Z,1001.35
2018-05-13T04:27:23.232Z,1001.36
2018-05-13T04:28:23.198Z,1001.37
2018-05-13T04:29:23.184Z,1001.35
2018-05-13T04:30:23.165Z,1001.38
2018-05-13T04:31:23.145Z,1001.37
2018-05-13T04:32:23.129Z,1001.35
2018-05-13T04:33:23.124Z,1001.39
2018-05-13T04:34:23.096Z,1001.41
2018-05-13T04:35:23.077Z,1001.40
2018-05-13T04:36:23.063Z,1001.49
2018-05-13T04:37:23.044Z,1001.47
2018-05-13T04:38:23.026Z,1001.50
2018-05-13T04:39:23.019Z,1001.52
2018-05-13T04:40:22.992Z,1001.55
2018-05-13T04:41:22.975Z,1001.57
2018-05-13T04:42:22.956Z,1001.59
2018-05-13T04:43:22.939Z,1001.64
2018-05-13T04:44:22.935Z,1001.69
2018-05-13T04:45:22.904Z,1001.68
2018-05-13T04:46:22.888Z,1001.68
2018-05-13T04:47:22.870Z,1001.69
2018-05-13T04:48:22.853Z,1001.70
2018-05-13T04:49:22.837Z,1001.73
2018-05-13T04:50:22.835Z,1001.74
2018-05-13T04:51:22.802Z,1001.70
2018-05-13T04:52:22.784Z,1001.73
2018-05-13T04:53:22.769Z,1001.77
2018-05-13T04:54:22.750Z,1001.75
2018-05-13T04:55:22.737Z,1001.79
2018-05-13T04:56:22.727Z,1001.81
2018-05-13T04:57:22.699Z,1001.79
2018-05-13T04:58:22.684Z,1001.82
2018-05-13T04:59:22.666Z,1001.89
2018-05-13T05:00:22.648Z,1001.88
2018-05-13T05:01:22.648Z,1001.88
2018-05-13T05:02:22.616Z,1001.86
2018-05-13T05:03:22.598Z,1001.89
2018-05-13T05:04:22.580Z,1001.89
2018-05-13T05:05:22.564Z,1001.90
2018-05-13T05:06:22.548Z,1001.87
2018-05-13T05:07:22.544Z,1001.88
2018-05-13T05:08:22.517Z,1001.92
2018-05-13T05:09:22.497Z,1001.92
2018-05-13T05:10:22.480Z,1001.98
2018-05-13T05:11:22.464Z,1002.01
2018-05-13T05:12:22.449Z,1002.01
2018-05-13T05:13:22.442Z,1001.99
2018-05-13T05:14:22.414Z,1002.04
2018-05-13T05:15:22.397Z,1002.02
2018-05-13T05:16:22.379Z,1002.07
2018-05-13T05:17:22.364Z,1002.09
2018-05-13T05:18:22.359Z,1002.12
2018-05-13T05:19:22.330Z,1002.14
2018-05-13T05:20:22.314Z,1002.16
2018-05-13T05:21:22.297Z,1002.18
2018-05-13T05:22:22.282Z,1002.23
2018-05-13T05:23:22.263Z,1002.23
2018-05-13T05:24:22.260Z,1002.24
2018-05-13T05:25:22.233Z,1002.27
2018-05-13T05:26:22.216Z,1002.33
2018-05-13T05:27:22.197Z,1002.36
2018-05-13T05:28:22.180Z,1002.39
2018-05-13T05:29:22.164Z,1002.43
2018-05-13T05:30:22.158Z,1002.43
2018-05-13T05:31:22.132Z,1002.40
2018-05-13T05:32:22.116Z,1002.36
2018-05-13T05:33:22.099Z,1002.27
2018-05-13T05:34:22.083Z,1002.22
2018-05-13T05:35:22.078Z,1002.16
2018-05-13T05:36:22.048Z,1002.18
2018-05-13T05:37:22.035Z,1002.25
2018-05-13T05:38:22.019Z,1002.29
2018-05-13T05:39:22.000Z,1002.31
2018-05-13T05:40:21.985Z,1002.29
2018-05-13T05:41:21.980Z,1002.20
2018-05-13T05:42:21.953Z,1002.22
2018-05-13T05:43:21.936Z,1002.20
2018-05-13T05:44:21.920Z,1002.16
2018-05-13T05:45:21.903Z,1002.19
2018-05-13T05:46:21.889Z,1002.13
2018-05-13T05:47:21.881Z,1002.14
2018-05-13T05:48:21.861Z,1002.12
2018-05-13T05:49:21.841Z,1002.08
2018-05-13T05:50:21.823Z,1002.05
2018-05-13T05:51:21.805Z,1002.01
2018-05-13T05:52:22.067Z,1002.00
2018-05-13T05:53:21.776Z,1001.99
2018-05-13T05:54:21.761Z,1001.89
2018-05-13T05:55:21.745Z,1001.90
2018-05-13T05:56:21.729Z,1001.90
2018-05-13T05:57:21.713Z,1001.90
2018-05-13T05:58:21.957Z,1001.94
2018-05-13T05:59:21.680Z,1001.94
2018-05-13T06:00:21.667Z,1001.90
2018-05-13T06:01:21.651Z,1001.97
2018-05-13T06:02:21.637Z,1001.97
2018-05-13T06:03:21.654Z,1001.93
2018-05-13T06:04:21.618Z,1001.91
2018-05-13T06:05:21.590Z,1001.92
2018-05-13T06:06:21.575Z,1001.91
2018-05-13T06:07:21.562Z,1001.89
2018-05-13T06:08:21.542Z,1001.93
2018-05-13T06:09:21.542Z,1001.91
2018-05-13T06:10:21.516Z,1001.89
2018-05-13T06:11:21.495Z,1001.91
2018-05-13T06:12:21.516Z,1001.93
2018-05-13T06:13:21.467Z,1001.88
2018-05-13T06:14:21.450Z,1001.91
2018-05-13T06:15:21.449Z,1001.94
2018-05-13T06:16:21.416Z,1001.92
2018-05-13T06:17:21.403Z,1001.87
2018-05-13T06:18:21.390Z,1001.92
2018-05-13T06:19:21.373Z,1001.92
2018-05-13T06:20:21.357Z,1001.90
2018-05-13T06:21:21.352Z,1001.95
2018-05-13T06:22:21.326Z,1001.96
2018-05-13T06:23:21.312Z,1001.95
2018-05-13T06:24:21.296Z,1001.97
2018-05-13T06:25:21.354Z,1002.01
2018-05-13T06:26:21.552Z,1002.06
2018-05-13T06:27:21.250Z,1002.03
2018-05-13T06:28:21.233Z,1002.06
2018-05-13T06:29:21.220Z,1002.07
2018-05-13T06:30:21.204Z,1002.03
2018-05-13T06:31:21.189Z,1002.05
2018-05-13T06:32:21.203Z,1002.05
2018-05-13T06:33:21.162Z,1002.05
2018-05-13T06:34:21.144Z,1002.01
2018-05-13T06:35:21.128Z,1002.01
2018-05-13T06:36:21.112Z,1002.01
2018-05-13T06:37:21.099Z,1002.03
2018-05-13T06:38:21.341Z,1002.09
2018-05-13T06:39:21.067Z,1002.13
2018-05-13T06:40:21.051Z,1002.11
2018-05-13T06:41:21.039Z,1002.12
2018-05-13T06:42:21.022Z,1002.11
2018-05-13T06:43:21.006Z,1002.09
2018-05-13T06:44:21.005Z,1002.11
2018-05-13T06:45:20.990Z,1002.13
2018-05-13T06:46:20.963Z,1002.16
2018-05-13T06:47:20.945Z,1002.19
2018-05-13T06:48:20.931Z,1002.20
2018-05-13T06:49:20.915Z,1002.21
2018-05-13T06:50:20.915Z,1002.22
2018-05-13T06:51:20.913Z,1002.24
2018-05-13T06:52:20.870Z,1002.28
2018-05-13T06:53:20.855Z,1002.36
2018-05-13T06:54:20.840Z,1002.37
2018-05-13T06:55:20.824Z,1002.41
2018-05-13T06:56:20.827Z,1002.47
2018-05-13T06:57:20.864Z,1002.51
2018-05-13T06:58:20.779Z,1002.57
2018-05-13T06:59:20.763Z,1002.62
2018-05-13T07:00:20.752Z,1002.67
2018-05-13T07:01:20.744Z,1002.67
2018-05-13T07:02:20.718Z,1002.72
2018-05-13T07:03:20.709Z,1002.73
2018-05-13T07:04:20.687Z,1002.77
2018-05-13T07:05:20.671Z,1002.74
2018-05-13T07:06:20.691Z,1002.75
2018-05-13T07:07:20.640Z,1002.78
2018-05-13T07:08:20.640Z,1002.79
2018-05-13T07:09:20.612Z,1002.79
2018-05-13T07:10:20.631Z,1002.75
2018-05-13T07:11:20.579Z,1002.73
2018-05-13T07:12:20.578Z,1002.74
2018-05-13T07:13:20.548Z,1002.74
2018-05-13T07:14:20.532Z,1002.68
2018-05-13T07:15:20.518Z,1002.73
2018-05-13T07:16:20.503Z,1002.79
2018-05-13T07:17:20.491Z,1002.86
2018-05-13T07:18:20.480Z,1002.97
2018-05-13T07:19:20.460Z,1003.02
2018-05-13T07:20:20.440Z,1003.02
2018-05-13T07:21:20.425Z,1002.99
2018-05-13T07:22:20.411Z,1002.90
2018-05-13T07:23:20.400Z,1002.72
2018-05-13T07:24:20.388Z,1002.65
2018-05-13T07:25:20.360Z,1002.64
2018-05-13T07:26:20.344Z,1002.62
2018-05-13T07:27:20.328Z,1002.73
2018-05-13T07:28:20.326Z,1002.85
2018-05-13T07:29:20.296Z,1002.89
2018-05-13T07:30:20.284Z,1002.94
2018-05-13T07:31:20.266Z,1002.92
2018-05-13T07:32:20.248Z,1002.88
2018-05-13T07:33:20.232Z,1002.83
2018-05-13T07:34:20.231Z,1002.78
2018-05-13T07:35:20.199Z,1002.66
2018-05-13T07:36:20.184Z,1002.62
2018-05-13T07:37:20.168Z,1002.54
2018-05-13T07:38:20.151Z,1002.52
2018-05-13T07:39:20.139Z,1002.52
2018-05-13T07:40:20.132Z,1002.59
2018-05-13T07:41:20.106Z,1002.59
2018-05-13T07:42:20.091Z,1002.63
2018-05-13T07:43:20.157Z,1002.69
2018-05-13T07:44:20.058Z,1002.71
2018-05-13T07:45:20.055Z,1002.76
2018-05-13T07:46:20.028Z,1002.71
2018-05-13T07:47:20.014Z,1002.71
2018-05-13T07:48:19.997Z,1002.60
2018-05-13T07:49:19.983Z,1002.43
2018-05-13T07:50:19.966Z,1002.21
2018-05-13T07:51:19.960Z,1002.04
2018-05-13T07:52:19.935Z,1001.89
2018-05-13T07:53:19.923Z,1001.86
2018-05-13T07:54:19.903Z,1001.88
2018-05-13T07:55:19.886Z,1001.93
2018-05-13T07:56:19.904Z,1002.00
2018-05-13T07:57:19.856Z,1002.02
2018-05-13T07:58:19.841Z,1002.07
2018-05-13T07:59:19.824Z,1002.07
2018-05-13T08:00:19.808Z,1002.19
2018-05-13T08:01:19.796Z,1002.16
2018-05-13T08:02:19.794Z,1002.26
2018-05-13T08:03:19.760Z,1002.30
2018-05-13T08:04:19.753Z,1002.32
2018-05-13T08:05:19.729Z,1002.35
2018-05-13T08:06:19.715Z,1002.30
2018-05-13T08:07:19.724Z,1002.30
2018-05-13T08:08:19.683Z,1002.33
2018-05-13T08:09:19.668Z,1002.34
2018-05-13T08:10:19.652Z,1002.40
2018-05-13T08:11:19.635Z,1002.40
2018-05-13T08:12:19.620Z,1002.38
2018-05-13T08:13:19.618Z,1002.39
2018-05-13T08:14:19.589Z,1002.45
2018-05-13T08:15:19.572Z,1002.42
2018-05-13T08:16:19.556Z,1002.50
2018-05-13T08:17:19.542Z,1002.59
2018-05-13T08:18:19.529Z,1002.65
2018-05-13T08:19:19.519Z,1002.72
2018-05-13T08:20:19.603Z,1002.75
2018-05-13T08:21:19.479Z,1002.75
2018-05-13T08:22:19.466Z,1002.76
2018-05-13T08:23:19.447Z,1002.76
2018-05-13T08:24:19.444Z,1002.73
2018-05-13T08:25:19.415Z,1002.74
2018-05-13T08:26:19.400Z,1002.76
2018-05-13T08:27:19.387Z,1002.79
2018-05-13T08:28:19.370Z,1002.78
2018-05-13T08:29:19.351Z,1002.80
2018-05-13T08:30:19.344Z,1002.82
2018-05-13T08:31:19.333Z,1002.81
2018-05-13T08:32:19.303Z,1002.86
2018-05-13T08:33:19.286Z,1002.88
2018-05-13T08:34:19.276Z,1002.98
2018-05-13T08:35:19.291Z,1002.98
2018-05-13T08:36:19.239Z,1002.95
2018-05-13T08:37:19.223Z,1002.93
2018-05-13T08:38:19.208Z,1002.97
2018-05-13T08:39:19.192Z,1002.98
2018-05-13T08:40:19.175Z,1003.01
2018-05-13T08:41:19.168Z,1003.05
2018-05-13T08:42:19.148Z,1003.03
2018-05-13T08:43:19.127Z,1003.04
2018-05-13T08:44:19.109Z,1002.98
2018-05-13T08:45:19.101Z,1003.05
2018-05-13T08:46:19.089Z,1003.06
2018-05-13T08:47:19.063Z,1003.07
2018-05-13T08:48:19.046Z,1003.09
2018-05-13T08:49:19.032Z,1003.15
2018-05-13T08:50:19.015Z,1003.14
2018-05-13T08:51:19.011Z,1003.18
2018-05-13T08:52:18.982Z,1003.24
2018-05-13T08:53:18.967Z,1003.29
2018-05-13T08:54:18.950Z,1003.27
2018-05-13T08:55:18.935Z,1003.30
2018-05-13T08:56:18.917Z,1003.23
2018-05-13T08:57:18.918Z,1003.26
2018-05-13T08:58:18.888Z,1003.24
2018-05-13T08:59:18.870Z,1003.29
2018-05-13T09:00:18.856Z,1003.34
2018-05-13T09:01:18.836Z,1003.34
2018-05-13T09:02:18.820Z,1003.35
2018-05-13T09:03:18.825Z,1003.40
2018-05-13T09:04:18.789Z,1003.44
2018-05-13T09:05:18.772Z,1003.40
2018-05-13T09:06:18.756Z,1003.47
2018-05-13T09:07:18.745Z,1003.48
2018-05-13T09:08:18.737Z,1003.47
2018-05-13T09:09:18.710Z,1003.49
2018-05-13T09:10:18.691Z,1003.48
2018-05-13T09:11:18.675Z,1003.45
2018-05-13T09:12:18.657Z,1003.46
2018-05-13T09:13:18.954Z,1003.45
2018-05-13T09:14:18.640Z,1003.46
2018-05-13T09:15:18.611Z,1003.41
2018-05-13T09:16:18.612Z,1003.42
2018-05-13T09:17:18.575Z,1003.44
2018-05-13T09:18:18.560Z,1003.43
2018-05-13T09:19:18.801Z,1003.39
2018-05-13T09:20:18.530Z,1003.38
2018-05-13T09:21:18.516Z,1003.40
2018-05-13T09:22:18.495Z,1003.41
2018-05-13T09:23:18.480Z,1003.41
2018-05-13T09:24:18.464Z,1003.39
2018-05-13T09:25:18.457Z,1003.44
2018-05-13T09:26:18.427Z,1003.45
2018-05-13T09:27:18.411Z,1003.46
2018-05-13T09:28:18.398Z,1003.43
2018-05-13T09:29:18.378Z,1003.39
2018-05-13T09:30:18.380Z,1003.39
2018-05-13T09:31:18.352Z,1003.36
2018-05-13T09:32:18.333Z,1003.38
2018-05-13T09:33:18.315Z,1003.37
2018-05-13T09:34:18.300Z,1003.35
2018-05-13T09:35:18.283Z,1003.36
2018-05-13T09:36:18.281Z,1003.31
2018-05-13T09:37:18.272Z,1003.27
2018-05-13T09:38:18.233Z,1003.25
2018-05-13T09:39:18.226Z,1003.22
2018-05-13T09:40:18.202Z,1003.21
2018-05-13T09:41:18.205Z,1003.14
2018-05-13T09:42:18.164Z,1003.12
2018-05-13T09:43:18.146Z,1003.08
2018-05-13T09:44:18.131Z,1003.06
2018-05-13T09:45:18.114Z,1003.08
2018-05-13T09:46:18.108Z,1003.05
2018-05-13T09:47:18.084Z,1003.03
2018-05-13T09:48:18.064Z,1003.01
2018-05-13T09:49:18.053Z,1003.03
2018-05-13T09:50:18.030Z,1003.01
2018-05-13T09:51:18.077Z,1003.06
2018-05-13T09:52:17.996Z,1003.09
2018-05-13T09:53:17.980Z,1003.10
2018-05-13T09:54:17.964Z,1003.12
2018-05-13T09:55:17.948Z,1003.17
2018-05-13T09:56:17.928Z,1003.15
2018-05-13T09:57:17.923Z,1003.14
2018-05-13T09:58:17.898Z,1003.14
2018-05-13T09:59:17.879Z,1003.09
2018-05-13T10:00:17.863Z,1003.14
2018-05-13T10:01:17.846Z,1003.12
2018-05-13T10:02:17.841Z,1003.06
2018-05-13T10:03:17.813Z,1003.02
2018-05-13T10:04:17.798Z,1003.06
2018-05-13T10:05:17.781Z,1003.04
2018-05-13T10:06:17.763Z,1002.97
2018-05-13T10:07:17.755Z,1002.99
2018-05-13T10:08:17.730Z,1002.98
2018-05-13T10:09:17.713Z,1003.00
2018-05-13T10:10:17.695Z,1003.04
2018-05-13T10:11:17.683Z,1003.05
2018-05-13T10:12:17.692Z,1003.12
2018-05-13T10:13:17.646Z,1003.11
2018-05-13T10:14:17.634Z,1003.23
2018-05-13T10:15:17.612Z,1003.19
2018-05-13T10:16:17.595Z,1003.22
2018-05-13T10:17:17.579Z,1003.21
2018-05-13T10:18:17.578Z,1003.24
2018-05-13T10:19:17.544Z,1003.23
2018-05-13T10:20:17.529Z,1003.25
2018-05-13T10:21:17.512Z,1003.29
2018-05-13T10:22:17.502Z,1003.34
2018-05-13T10:23:17.479Z,1003.35
2018-05-13T10:24:17.476Z,1003.40
2018-05-13T10:25:17.446Z,1003.44
2018-05-13T10:26:17.430Z,1003.56
2018-05-13T10:27:17.466Z,1003.56
2018-05-13T10:28:17.394Z,1003.60
2018-05-13T10:29:17.426Z,1003.58
2018-05-13T10:30:17.361Z,1003.60
2018-05-13T10:31:17.343Z,1003.63
2018-05-13T10:32:17.327Z,1003.60
2018-05-13T10:33:17.310Z,1003.67
2018-05-13T10:34:17.307Z,1003.66
2018-05-13T10:35:17.279Z,1003.67
2018-05-13T10:36:17.323Z,1003.61
2018-05-13T10:37:17.242Z,1003.64
2018-05-13T10:38:17.226Z,1003.59
2018-05-13T10:39:17.208Z,1003.54
2018-05-13T10:40:17.206Z,1003.54
2018-05-13T10:41:17.175Z,1003.48
2018-05-13T10:42:17.160Z,1003.47
2018-05-13T10:43:17.140Z,1003.44
2018-05-13T10:44:17.125Z,1003.41
2018-05-13T10:45:17.106Z,1003.43
2018-05-13T10:46:17.123Z,1003.43
2018-05-13T10:47:17.071Z,1003.42
2018-05-13T10:48:17.055Z,1003.42
2018-05-13T10:49:17.037Z,1003.50
2018-05-13T10:50:17.022Z,1003.49
2018-05-13T10:51:17.006Z,1003.51
2018-05-13T10:52:16.994Z,1003.50
2018-05-13T10:53:16.971Z,1003.58
2018-05-13T10:54:16.953Z,1003.57
2018-05-13T10:55:16.936Z,1003.58
2018-05-13T10:56:16.917Z,1003.63
2018-05-13T10:57:16.911Z,1003.63
2018-05-13T10:58:16.886Z,1003.62
2018-05-13T10:59:16.867Z,1003.67
2018-05-13T11:00:16.853Z,1003.64
2018-05-13T11:01:16.834Z,1003.56
2018-05-13T11:02:16.829Z,1003.50
2018-05-13T11:03:16.799Z,1003.42
2018-05-13T11:04:16.782Z,1003.39
2018-05-13T11:05:16.764Z,1003.31
2018-05-13T11:06:16.747Z,1003.29
2018-05-13T11:07:16.729Z,1003.33
2018-05-13T11:08:16.721Z,1003.33
2018-05-13T11:09:16.695Z,1003.44
2018-05-13T11:10:16.690Z,1003.47
2018-05-13T11:11:16.666Z,1003.53
2018-05-13T11:12:16.645Z,1003.61
2018-05-13T11:13:16.649Z,1003.63
2018-05-13T11:14:16.610Z,1003.64
2018-05-13T11:15:16.593Z,1003.60
2018-05-13T11:16:16.577Z,1003.56
2018-05-13T11:17:16.561Z,1003.50
2018-05-13T11:18:16.542Z,1003.42
2018-05-13T11:19:16.537Z,1003.34
2018-05-13T11:20:16.508Z,1003.30
2018-05-13T11:21:16.492Z,1003.28
2018-05-13T11:22:16.474Z,1003.28
2018-05-13T11:23:16.457Z,1003.32
2018-05-13T11:24:16.442Z,1003.35
2018-05-13T11:25:16.436Z,1003.43
2018-05-13T11:26:16.406Z,1003.43
2018-05-13T11:27:16.388Z,1003.46
2018-05-13T11:28:16.375Z,1003.48
2018-05-13T11:29:16.355Z,1003.50
2018-05-13T11:30:16.350Z,1003.54
2018-05-13T11:31:16.323Z,1003.44
2018-05-13T11:32:16.301Z,1003.47
2018-05-13T11:33:16.286Z,1003.44
2018-05-13T11:34:16.271Z,1003.32
2018-05-13T11:35:16.251Z,1003.30
2018-05-13T11:36:16.244Z,1003.25
2018-05-13T11:37:16.218Z,1003.21
2018-05-13T11:38:16.200Z,1003.19
2018-05-13T11:39:16.181Z,1003.20
2018-05-13T11:40:16.166Z,1003.28
2018-05-13T11:41:16.157Z,1003.40
2018-05-13T11:42:16.132Z,1003.45
2018-05-13T11:43:16.113Z,1003.54
2018-05-13T11:44:16.096Z,1003.62
2018-05-13T11:45:16.124Z,1003.68
2018-05-13T11:46:16.320Z,1003.71
2018-05-13T11:47:16.047Z,1003.64
2018-05-13T11:48:16.028Z,1003.62
2018-05-13T11:49:16.009Z,1003.53
2018-05-13T11:50:15.995Z,1003.49
2018-05-13T11:51:15.976Z,1003.39
2018-05-13T11:52:15.972Z,1003.33
2018-05-13T11:53:15.941Z,1003.30
2018-05-13T11:54:15.925Z,1003.29
2018-05-13T11:55:15.908Z,1003.28
2018-05-13T11:56:15.889Z,1003.30
2018-05-13T11:57:15.873Z,1003.35
2018-05-13T11:58:15.864Z,1003.37
2018-05-13T11:59:15.838Z,1003.44
2018-05-13T12:00:15.822Z,1003.47
2018-05-13T12:01:15.803Z,1003.56
2018-05-13T12:02:15.869Z,1003.52
2018-05-13T12:03:15.785Z,1003.48
2018-05-13T12:04:15.753Z,1003.49
2018-05-13T12:05:15.742Z,1003.46